الصفحة الرئيسية
METAR-TAF:

METAR-TAF

مطار :

مطار قابس مطماطة الدولي

ڨابس, تونس

دائرة عرض: 33-53N, خط طول: 010-06E, ارتفاع: 4 متر

مراقبة الطقس الحالي

تاريخ ووقت الإصدار 54 دقيقة قبل الساعة 18:00UTC
ريح 11 عقدة من الشرق
درجة الحرارة 21°درجة مئوية
الرطوبة 35%
ضغط 1011 hPa
الرؤية 10 كم أو أكثر
الغيوم لا تقل 1500 م ولا وجود لمزنة ركامية السحاب الأسود

METAR: DTTG 011800Z 10011KT CAVOK 21/05 Q1011 NOSIG

زمن: 19:54 (18:54 UTC)

توقعات

تاريخ ووقت الإصدار 3ساعات و 54 دقيقة قبل الساعة 15:00UTC
التوقعات صالحة من01 الساعة 16 UTC إلى 02 الساعة 01 UTC
ريح 10 عقدة من الشرق/الشمال الشرقي
الرؤية 10 كم أو أكثر
غيوم قليلة على ارتفاع 3300 قدم

TAF: DTTG 011500Z 0116/0201 06010KT 9999 FEW033

أرصاد الطقس والتوقعات من أكثر من 4000 مطار (تقارير الطقس للمطار METAR والتنبؤ بالطقس بالمطارTAF).

المحطات المتاحة هي النقط الصفراء والحمراء على الخريطة.

حرك المؤشر فوق النقطة لمعرفة اسم المحطة.

ثم انقر لمعرفة أرصاد وتوقعات الطقس.

لتغيير الخارطة: اضغط على الأزرار الخضراء مع رمز الصليب الأسود للتكبير. على الزر الأخضر مع شرطة للتصغير، أو على الأسهم الخضراء للخرائط المجاورة.


METAR-TAF: